createdAt,value
2023-05-20T00:02:14.522Z,10.10
2023-05-20T00:04:42.352Z,10.20
2023-05-20T00:07:09.477Z,10.20
2023-05-20T00:09:38.155Z,10.10
2023-05-20T00:12:05.571Z,10.00
2023-05-20T00:14:32.455Z,10.00
2023-05-20T00:16:59.658Z,10.00
2023-05-20T00:19:26.762Z,10.00
2023-05-20T00:21:53.873Z,10.00
2023-05-20T00:24:20.846Z,10.00
2023-05-20T00:26:47.721Z,10.00
2023-05-20T00:29:14.626Z,10.10
2023-05-20T00:31:42.343Z,10.10
2023-05-20T00:34:10.017Z,10.10
2023-05-20T00:36:37.230Z,10.10
2023-05-20T00:39:04.349Z,10.00
2023-05-20T00:41:31.305Z,10.00
2023-05-20T00:43:58.308Z,10.00
2023-05-20T00:46:27.750Z,10.00
2023-05-20T00:48:54.860Z,10.00
2023-05-20T00:51:22.155Z,10.00
2023-05-20T00:53:49.816Z,10.00
2023-05-20T00:56:16.884Z,10.10
2023-05-20T00:58:43.917Z,10.00
2023-05-20T01:01:10.936Z,10.10
2023-05-20T01:03:39.257Z,10.10
2023-05-20T01:06:06.284Z,10.00
2023-05-20T01:08:34.254Z,10.00
2023-05-20T01:11:11.502Z,10.00
2023-05-20T01:13:54.514Z,10.00
2023-05-20T01:16:24.593Z,10.00
2023-05-20T01:18:55.507Z,10.00
2023-05-20T01:21:22.782Z,10.00
2023-05-20T01:23:49.760Z,10.00
2023-05-20T01:26:17.281Z,10.10
2023-05-20T01:28:44.448Z,10.00
2023-05-20T01:31:20.577Z,10.10
2023-05-20T01:33:51.958Z,10.10
2023-05-20T01:36:21.565Z,10.10
2023-05-20T01:38:49.467Z,10.00
2023-05-20T01:41:17.169Z,10.00
2023-05-20T01:43:45.133Z,10.00
2023-05-20T01:46:12.081Z,10.00
2023-05-20T01:48:39.031Z,10.00
2023-05-20T01:51:06.083Z,10.00
2023-05-20T01:53:33.043Z,10.10
2023-05-20T01:56:00.105Z,10.00
2023-05-20T01:58:27.032Z,10.00
2023-05-20T02:00:53.917Z,10.00
2023-05-20T02:03:21.006Z,10.10
2023-05-20T02:05:47.923Z,10.10
2023-05-20T02:08:14.868Z,10.10
2023-05-20T02:10:41.853Z,10.00
2023-05-20T02:13:08.893Z,10.00
2023-05-20T02:15:36.234Z,10.00
2023-05-20T02:18:05.755Z,10.00
2023-05-20T02:20:36.574Z,10.00
2023-05-20T02:23:05.959Z,10.10
2023-05-20T02:25:33.190Z,10.10
2023-05-20T02:28:00.443Z,10.10
2023-05-20T02:30:27.681Z,10.00
2023-05-20T02:32:54.720Z,10.00
2023-05-20T02:35:21.658Z,10.00
2023-05-20T02:37:48.579Z,10.00
2023-05-20T02:40:15.575Z,10.00
2023-05-20T02:42:42.549Z,10.00
2023-05-20T02:45:09.865Z,10.00
2023-05-20T02:47:36.820Z,10.10
2023-05-20T02:50:04.098Z,10.00
2023-05-20T02:52:31.039Z,10.10
2023-05-20T02:54:57.944Z,10.10
2023-05-20T02:57:25.086Z,10.10
2023-05-20T02:59:52.512Z,10.10
2023-05-20T03:02:19.393Z,10.10
2023-05-20T03:04:47.517Z,10.10
2023-05-20T03:07:17.656Z,10.00
2023-05-20T03:09:44.617Z,10.00
2023-05-20T03:12:11.506Z,10.00
2023-05-20T03:14:38.433Z,10.10
2023-05-20T03:17:05.622Z,10.10
2023-05-20T03:19:32.682Z,10.10
2023-05-20T03:22:00.804Z,10.10
2023-05-20T03:24:28.659Z,10.10
2023-05-20T03:26:56.126Z,10.10
2023-05-20T03:29:23.645Z,10.10
2023-05-20T03:31:50.671Z,10.10
2023-05-20T03:34:17.686Z,10.10
2023-05-20T03:36:44.768Z,10.10
2023-05-20T03:39:11.672Z,10.20
2023-05-20T03:41:38.590Z,10.20
2023-05-20T03:44:05.612Z,10.20
2023-05-20T03:46:34.475Z,10.20
2023-05-20T03:49:05.638Z,10.20
2023-05-20T03:51:32.590Z,10.20
2023-05-20T03:53:59.465Z,10.20
2023-05-20T03:56:26.578Z,10.20
2023-05-20T03:58:53.663Z,10.30
2023-05-20T04:01:21.367Z,10.30
2023-05-20T04:03:48.424Z,10.30
2023-05-20T04:06:15.431Z,10.30
2023-05-20T04:08:42.500Z,10.30
2023-05-20T04:11:09.461Z,10.30
2023-05-20T04:13:36.462Z,10.30
2023-05-20T04:16:05.420Z,10.30
2023-05-20T04:18:32.449Z,10.30
2023-05-20T04:21:01.864Z,10.40
2023-05-20T04:23:28.883Z,10.40
2023-05-20T04:25:55.818Z,10.40
2023-05-20T04:28:23.992Z,10.40
2023-05-20T04:30:59.318Z,10.40
2023-05-20T04:33:27.000Z,10.40
2023-05-20T04:35:53.970Z,10.50
2023-05-20T04:38:20.836Z,10.50
2023-05-20T04:40:47.715Z,10.50
2023-05-20T04:43:15.635Z,10.50
2023-05-20T04:45:42.747Z,10.60
2023-05-20T04:48:09.748Z,10.60
2023-05-20T04:50:37.936Z,10.60
2023-05-20T04:53:04.865Z,10.60
2023-05-20T04:55:32.297Z,10.60
2023-05-20T04:57:59.407Z,10.60
2023-05-20T05:00:26.304Z,10.70
2023-05-20T05:02:53.239Z,10.70
2023-05-20T05:05:20.216Z,10.70
2023-05-20T05:07:47.322Z,10.80
2023-05-20T05:10:15.805Z,10.90
2023-05-20T05:12:42.823Z,10.90
2023-05-20T05:15:10.242Z,10.90
2023-05-20T05:17:37.199Z,11.00
2023-05-20T05:20:04.426Z,11.00
2023-05-20T05:22:31.321Z,11.00
2023-05-20T05:24:59.048Z,11.10
2023-05-20T05:27:26.162Z,11.10
2023-05-20T05:29:53.113Z,11.20
2023-05-20T05:32:20.096Z,11.20
2023-05-20T05:34:47.041Z,11.20
2023-05-20T05:37:13.992Z,11.20
2023-05-20T05:39:41.179Z,11.30
2023-05-20T05:42:08.130Z,11.30
2023-05-20T05:44:35.079Z,11.30
2023-05-20T05:47:02.378Z,11.40
2023-05-20T05:49:29.348Z,11.50
2023-05-20T05:51:56.304Z,11.50
2023-05-20T05:54:23.209Z,11.50
2023-05-20T05:56:52.317Z,11.50
2023-05-20T05:59:20.227Z,11.50
2023-05-20T06:01:47.284Z,11.50
2023-05-20T06:04:14.458Z,11.50
2023-05-20T06:06:41.815Z,11.50
2023-05-20T06:09:09.323Z,11.60
2023-05-20T06:11:36.244Z,11.70
2023-05-20T06:14:03.628Z,11.70
2023-05-20T06:16:30.740Z,11.70
2023-05-20T06:18:57.871Z,11.80
2023-05-20T06:21:25.222Z,11.80
2023-05-20T06:23:52.161Z,11.80
2023-05-20T06:26:19.090Z,11.80
2023-05-20T06:28:46.032Z,11.90
2023-05-20T06:31:13.181Z,11.90
2023-05-20T06:33:40.105Z,12.00
2023-05-20T06:36:07.332Z,12.10
2023-05-20T06:38:34.340Z,12.30
2023-05-20T06:41:01.782Z,12.50
2023-05-20T06:43:29.030Z,12.50
2023-05-20T06:45:56.133Z,12.60
2023-05-20T06:48:23.142Z,12.70
2023-05-20T06:50:50.153Z,12.70
2023-05-20T06:53:17.335Z,12.90
2023-05-20T06:55:44.256Z,13.00
2023-05-20T06:58:11.190Z,13.00
2023-05-20T07:00:39.273Z,13.00
2023-05-20T07:03:06.237Z,13.00
2023-05-20T07:05:33.438Z,13.00
2023-05-20T07:08:00.529Z,13.00
2023-05-20T07:10:27.532Z,13.00
2023-05-20T07:12:54.555Z,13.00
2023-05-20T07:15:21.593Z,13.00
2023-05-20T07:17:48.797Z,13.00
2023-05-20T07:20:15.912Z,13.10
2023-05-20T07:22:44.603Z,13.20
2023-05-20T07:25:11.631Z,13.40
2023-05-20T07:27:38.693Z,13.50
2023-05-20T07:30:06.210Z,13.50
2023-05-20T07:32:33.165Z,13.40
2023-05-20T07:35:00.162Z,13.60
2023-05-20T07:37:27.479Z,13.70
2023-05-20T07:39:54.437Z,13.90
2023-05-20T07:42:21.594Z,13.90
2023-05-20T07:44:48.508Z,14.00
2023-05-20T07:47:15.498Z,14.00
2023-05-20T07:49:44.530Z,14.00
2023-05-20T07:52:11.569Z,14.00
2023-05-20T07:54:38.606Z,14.00
2023-05-20T07:57:05.781Z,14.10
2023-05-20T07:59:32.804Z,14.20
2023-05-20T08:01:59.915Z,14.10
2023-05-20T08:04:27.883Z,14.10
2023-05-20T08:06:56.065Z,14.20
2023-05-20T08:09:23.264Z,14.20
2023-05-20T08:11:50.866Z,14.20
2023-05-20T08:14:17.972Z,14.20
2023-05-20T08:16:45.164Z,14.30
2023-05-20T08:19:12.236Z,14.30
2023-05-20T08:21:39.388Z,14.30
2023-05-20T08:24:06.679Z,14.40
2023-05-20T08:26:33.803Z,14.40
2023-05-20T08:29:01.001Z,14.50
2023-05-20T08:31:28.707Z,14.50
2023-05-20T08:33:56.053Z,14.50
2023-05-20T08:36:23.763Z,14.50
2023-05-20T08:38:51.218Z,14.60
2023-05-20T08:41:18.624Z,14.60
2023-05-20T08:43:46.499Z,14.60
2023-05-20T08:46:15.673Z,14.70
2023-05-20T08:48:44.569Z,14.70
2023-05-20T08:51:11.994Z,14.80
2023-05-20T08:53:39.837Z,15.00
2023-05-20T08:56:08.106Z,15.10
2023-05-20T08:58:35.199Z,15.20
2023-05-20T09:01:02.402Z,15.30
2023-05-20T09:03:29.399Z,15.30
2023-05-20T09:06:05.426Z,15.30
2023-05-20T09:08:33.284Z,15.30
2023-05-20T09:11:00.833Z,15.20
2023-05-20T09:13:30.393Z,15.20
2023-05-20T09:15:59.432Z,15.20
2023-05-20T09:18:27.000Z,15.30
2023-05-20T09:20:54.098Z,15.30
2023-05-20T09:23:26.098Z,15.40
2023-05-20T09:25:53.229Z,15.40
2023-05-20T09:28:25.253Z,15.40
2023-05-20T09:31:00.479Z,15.50
2023-05-20T09:33:32.203Z,15.50
2023-05-20T09:36:08.319Z,15.50
2023-05-20T09:38:39.716Z,15.50
2023-05-20T09:41:08.874Z,15.60
2023-05-20T09:43:37.390Z,15.70
2023-05-20T09:46:05.627Z,15.70
2023-05-20T09:48:34.190Z,15.70
2023-05-20T09:51:02.835Z,15.60
2023-05-20T09:53:29.919Z,15.60
2023-05-20T09:55:57.356Z,15.70
2023-05-20T09:58:25.320Z,15.70
2023-05-20T10:00:54.146Z,15.80
2023-05-20T10:03:25.163Z,15.90
2023-05-20T10:06:24.403Z,16.00
2023-05-20T10:09:10.111Z,15.90
2023-05-20T10:11:45.632Z,16.00
2023-05-20T10:14:15.723Z,16.10
2023-05-20T10:16:58.218Z,16.30
2023-05-20T10:19:33.829Z,16.30
2023-05-20T10:22:04.543Z,16.20
2023-05-20T10:24:41.280Z,16.30
2023-05-20T10:27:14.911Z,16.20
2023-05-20T10:32:31.924Z,16.10
2023-05-20T10:35:01.767Z,16.00
2023-05-20T10:37:30.579Z,15.90
2023-05-20T10:40:08.275Z,15.80
2023-05-20T10:42:35.412Z,15.70
2023-05-20T10:45:03.258Z,15.60
2023-05-20T10:47:31.194Z,15.50
2023-05-20T10:49:58.638Z,15.50
2023-05-20T10:52:25.882Z,15.30
2023-05-20T10:55:00.490Z,15.10
2023-05-20T10:57:29.038Z,15.10
2023-05-20T10:59:56.454Z,15.00
2023-05-20T11:02:27.072Z,14.90
2023-05-20T11:05:00.824Z,14.80
2023-05-20T11:07:30.816Z,14.70
2023-05-20T11:09:58.788Z,14.70
2023-05-20T11:12:27.199Z,14.70
2023-05-20T11:14:54.777Z,14.60
2023-05-20T11:17:21.996Z,14.60
2023-05-20T11:19:49.218Z,14.60
2023-05-20T11:22:16.158Z,14.70
2023-05-20T11:24:43.218Z,14.70
2023-05-20T11:27:10.343Z,14.70
2023-05-20T11:29:38.020Z,14.70
2023-05-20T11:32:05.520Z,14.70
2023-05-20T11:34:37.427Z,14.80
2023-05-20T11:37:09.129Z,14.90
2023-05-20T11:39:37.326Z,14.90
2023-05-20T11:42:06.214Z,15.10
2023-05-20T11:44:33.521Z,15.10
2023-05-20T11:47:02.181Z,15.20
2023-05-20T11:49:30.930Z,15.40
2023-05-20T11:51:58.415Z,15.50
2023-05-20T11:54:25.492Z,15.60
2023-05-20T11:56:55.699Z,15.70
2023-05-20T11:59:25.101Z,15.70
2023-05-20T12:01:52.235Z,15.80
2023-05-20T12:04:19.358Z,15.80
2023-05-20T12:06:46.937Z,15.80
2023-05-20T12:09:14.451Z,15.80
2023-05-20T12:11:42.087Z,15.90
2023-05-20T12:14:09.511Z,16.00
2023-05-20T12:16:37.932Z,16.10
2023-05-20T12:19:05.796Z,16.20
2023-05-20T12:21:33.054Z,16.20
2023-05-20T12:24:01.288Z,16.30
2023-05-20T12:26:29.600Z,16.30
2023-05-20T12:28:56.845Z,16.30
2023-05-20T12:31:25.421Z,16.30
2023-05-20T12:33:52.605Z,16.30
2023-05-20T12:36:22.342Z,17.70
2023-05-20T12:38:49.300Z,16.30
2023-05-20T12:41:16.211Z,16.20
2023-05-20T12:43:43.115Z,16.20
2023-05-20T12:46:10.218Z,16.10
2023-05-20T12:48:37.489Z,16.20
2023-05-20T12:51:05.161Z,16.20
2023-05-20T12:53:32.151Z,16.10
2023-05-20T12:55:59.165Z,16.00
2023-05-20T12:58:26.029Z,15.90
2023-05-20T13:00:52.935Z,15.80
2023-05-20T13:03:20.145Z,15.70
2023-05-20T13:05:47.234Z,15.70
2023-05-20T13:08:14.916Z,15.70
2023-05-20T13:10:42.209Z,15.70
2023-05-20T13:13:09.223Z,15.70
2023-05-20T13:15:36.864Z,15.60
2023-05-20T13:18:06.805Z,15.60
2023-05-20T13:20:34.579Z,15.50
2023-05-20T13:23:01.907Z,15.40
2023-05-20T13:25:29.465Z,15.50
2023-05-20T13:27:56.670Z,15.50
2023-05-20T13:30:23.578Z,15.60
2023-05-20T13:32:50.631Z,15.60
2023-05-20T13:35:17.684Z,15.70
2023-05-20T13:37:44.982Z,15.70
2023-05-20T13:40:12.781Z,15.80
2023-05-20T13:42:39.842Z,15.80
2023-05-20T13:45:07.370Z,15.80
2023-05-20T13:47:34.434Z,15.80
2023-05-20T13:50:02.987Z,15.80
2023-05-20T13:52:30.395Z,15.80
2023-05-20T13:54:57.433Z,15.90
2023-05-20T13:57:24.419Z,15.90
2023-05-20T13:59:51.363Z,15.90
2023-05-20T14:02:18.625Z,16.00
2023-05-20T14:04:47.309Z,16.00
2023-05-20T14:07:14.489Z,16.10
2023-05-20T14:09:41.601Z,16.10
2023-05-20T14:12:08.714Z,16.00
2023-05-20T14:14:35.726Z,16.00
2023-05-20T14:17:02.699Z,16.00
2023-05-20T14:19:30.432Z,15.90
2023-05-20T14:21:59.159Z,15.90
2023-05-20T14:24:26.051Z,16.00
2023-05-20T14:26:53.320Z,16.00
2023-05-20T14:29:20.592Z,16.10
2023-05-20T14:31:47.730Z,16.20
2023-05-20T14:34:14.834Z,16.30
2023-05-20T14:36:42.062Z,16.30
2023-05-20T14:39:10.487Z,16.40
2023-05-20T14:41:37.615Z,16.40
2023-05-20T14:44:04.733Z,16.40
2023-05-20T14:46:31.710Z,16.30
2023-05-20T14:48:59.285Z,16.30
2023-05-20T14:51:26.380Z,16.20
2023-05-20T14:53:53.324Z,16.20
2023-05-20T14:56:20.296Z,16.20
2023-05-20T14:58:47.196Z,16.20
2023-05-20T15:01:14.146Z,16.10
2023-05-20T15:03:41.222Z,16.20
2023-05-20T15:06:08.259Z,16.20
2023-05-20T15:08:35.171Z,16.20
2023-05-20T15:11:02.192Z,16.30
2023-05-20T15:13:29.079Z,16.30
2023-05-20T15:15:56.080Z,16.40
2023-05-20T15:18:23.056Z,16.40
2023-05-20T15:20:49.997Z,16.50
2023-05-20T15:23:17.846Z,16.50
2023-05-20T15:25:44.963Z,16.60
2023-05-20T15:28:12.062Z,16.50
2023-05-20T15:30:38.993Z,16.50
2023-05-20T15:33:06.154Z,16.50
2023-05-20T15:35:33.118Z,16.40
2023-05-20T15:38:00.177Z,16.40
2023-05-20T15:40:28.156Z,16.40
2023-05-20T15:42:55.155Z,16.40
2023-05-20T15:45:22.105Z,16.40
2023-05-20T15:47:49.273Z,16.50
2023-05-20T15:50:16.450Z,16.50
2023-05-20T15:52:43.434Z,16.60
2023-05-20T15:55:11.044Z,16.70
2023-05-20T15:57:38.258Z,16.70
2023-05-20T16:00:09.476Z,16.80
2023-05-20T16:02:37.144Z,16.80
2023-05-20T16:05:04.713Z,16.80
2023-05-20T16:07:31.703Z,16.90
2023-05-20T16:09:58.676Z,17.00
2023-05-20T16:12:25.688Z,17.00
2023-05-20T16:14:52.758Z,17.20
2023-05-20T16:17:21.733Z,17.30
2023-05-20T16:19:49.482Z,17.20
2023-05-20T16:22:17.688Z,17.20
2023-05-20T16:24:45.128Z,17.10
2023-05-20T16:27:12.289Z,17.10
2023-05-20T16:29:42.004Z,17.20
2023-05-20T16:32:09.034Z,17.20
2023-05-20T16:34:35.958Z,17.20
2023-05-20T16:37:03.024Z,17.20
2023-05-20T16:39:29.977Z,17.20
2023-05-20T16:41:56.852Z,17.30
2023-05-20T16:44:23.772Z,17.30
2023-05-20T16:46:53.354Z,17.30
2023-05-20T16:49:21.298Z,17.40
2023-05-20T16:51:48.380Z,17.40
2023-05-20T16:54:15.304Z,17.40
2023-05-20T16:56:42.298Z,17.40
2023-05-20T16:59:09.291Z,17.30
2023-05-20T17:01:37.045Z,17.30
2023-05-20T17:04:04.263Z,17.30
2023-05-20T17:06:34.398Z,17.30
2023-05-20T17:09:04.138Z,17.20
2023-05-20T17:11:31.151Z,17.20
2023-05-20T17:13:58.048Z,17.20
2023-05-20T17:16:25.229Z,17.20
2023-05-20T17:18:53.662Z,17.20
2023-05-20T17:21:20.870Z,17.20
2023-05-20T17:23:48.198Z,17.20
2023-05-20T17:26:16.098Z,17.10
2023-05-20T17:28:43.322Z,17.10
2023-05-20T17:31:10.355Z,17.10
2023-05-20T17:33:37.492Z,17.00
2023-05-20T17:36:04.702Z,16.90
2023-05-20T17:38:31.642Z,16.80
2023-05-20T17:40:58.572Z,16.80
2023-05-20T17:43:25.714Z,16.80
2023-05-20T17:45:52.790Z,16.70
2023-05-20T17:48:19.916Z,16.70
2023-05-20T17:50:46.977Z,16.60
2023-05-20T17:53:13.986Z,16.60
2023-05-20T17:55:41.133Z,16.60
2023-05-20T17:58:08.168Z,16.50
2023-05-20T18:00:41.944Z,16.40
2023-05-20T18:03:09.881Z,16.40
2023-05-20T18:05:37.157Z,16.30
2023-05-20T18:08:04.289Z,16.30
2023-05-20T18:10:31.247Z,16.30
2023-05-20T18:12:58.185Z,16.30
2023-05-20T18:15:25.087Z,16.20
2023-05-20T18:17:52.350Z,16.10
2023-05-20T18:20:19.358Z,16.10
2023-05-20T18:22:46.351Z,16.00
2023-05-20T18:25:14.685Z,15.90
2023-05-20T18:27:42.317Z,15.80
2023-05-20T18:30:10.170Z,15.70
2023-05-20T18:32:38.489Z,15.70
2023-05-20T18:35:06.007Z,15.60
2023-05-20T18:37:33.271Z,15.60
2023-05-20T18:40:00.592Z,15.50
2023-05-20T18:42:27.656Z,15.30
2023-05-20T18:44:54.707Z,15.30
2023-05-20T18:47:21.823Z,15.20
2023-05-20T18:49:48.865Z,15.20
2023-05-20T18:52:15.868Z,15.20
2023-05-20T18:54:42.794Z,15.10
2023-05-20T18:57:10.252Z,15.10
2023-05-20T18:59:37.287Z,15.10
2023-05-20T19:02:04.349Z,15.00
2023-05-20T19:04:31.624Z,14.90
2023-05-20T19:06:59.250Z,14.90
2023-05-20T19:09:26.390Z,14.80
2023-05-20T19:11:56.918Z,14.70
2023-05-20T19:14:23.892Z,14.70
2023-05-20T19:16:51.047Z,14.70
2023-05-20T19:19:18.069Z,14.70
2023-05-20T19:21:45.133Z,14.60
2023-05-20T19:24:12.178Z,14.60
2023-05-20T19:26:39.693Z,14.50
2023-05-20T19:29:07.020Z,14.50
2023-05-20T19:31:33.969Z,14.50
2023-05-20T19:34:00.930Z,14.50
2023-05-20T19:36:27.938Z,14.50
2023-05-20T19:38:54.811Z,14.40
2023-05-20T19:41:22.723Z,14.30
2023-05-20T19:43:49.609Z,14.30
2023-05-20T19:46:16.651Z,14.30
2023-05-20T19:48:43.715Z,14.30
2023-05-20T19:51:10.965Z,14.30
2023-05-20T19:53:40.578Z,14.30
2023-05-20T19:56:08.083Z,14.30
2023-05-20T19:58:35.044Z,14.20
2023-05-20T20:01:02.400Z,14.10
2023-05-20T20:03:29.373Z,14.10
2023-05-20T20:05:57.354Z,14.10
2023-05-20T20:08:24.419Z,14.10
2023-05-20T20:10:51.537Z,14.10
2023-05-20T20:13:18.432Z,14.10
2023-05-20T20:15:45.570Z,14.10
2023-05-20T20:18:12.629Z,14.10
2023-05-20T20:20:42.757Z,14.00
2023-05-20T20:23:10.359Z,14.00
2023-05-20T20:25:38.900Z,14.00
2023-05-20T20:28:07.627Z,14.00
2023-05-20T20:30:36.147Z,14.00
2023-05-20T20:33:06.518Z,14.10
2023-05-20T20:35:34.341Z,14.00
2023-05-20T20:38:08.447Z,14.10
2023-05-20T20:40:41.965Z,14.00
2023-05-20T20:43:11.187Z,14.00
2023-05-20T20:45:38.335Z,13.90
2023-05-20T20:48:08.277Z,13.90
2023-05-20T20:50:35.843Z,13.90
2023-05-20T20:53:02.978Z,13.80
2023-05-20T20:55:30.650Z,13.80
2023-05-20T20:57:58.262Z,13.80
2023-05-20T21:00:25.431Z,13.80
2023-05-20T21:02:52.462Z,13.70
2023-05-20T21:05:21.559Z,13.80
2023-05-20T21:07:52.595Z,13.80
2023-05-20T21:10:19.651Z,13.70
2023-05-20T21:12:46.638Z,13.70
2023-05-20T21:15:15.131Z,13.70
2023-05-20T21:17:42.206Z,13.70
2023-05-20T21:20:09.840Z,13.70
2023-05-20T21:22:36.910Z,13.70
2023-05-20T21:25:04.039Z,13.70
2023-05-20T21:27:30.965Z,13.60
2023-05-20T21:29:57.886Z,13.60
2023-05-20T21:32:24.843Z,13.60
2023-05-20T21:34:51.771Z,13.60
2023-05-20T21:37:18.824Z,13.60
2023-05-20T21:39:45.749Z,13.60
2023-05-20T21:42:12.711Z,13.50
2023-05-20T21:44:39.614Z,13.50
2023-05-20T21:47:06.542Z,13.50
2023-05-20T21:49:33.814Z,13.50
2023-05-20T21:52:00.776Z,13.50
2023-05-20T21:54:27.768Z,13.50
2023-05-20T21:56:54.704Z,13.50
2023-05-20T21:59:21.859Z,13.50
2023-05-20T22:01:50.515Z,13.50
2023-05-20T22:04:20.510Z,13.50
2023-05-20T22:06:47.691Z,13.50
2023-05-20T22:09:14.824Z,13.50
2023-05-20T22:11:45.132Z,13.50
2023-05-20T22:14:16.264Z,13.50
2023-05-20T22:16:46.914Z,13.50
2023-05-20T22:19:15.386Z,13.50
2023-05-20T22:21:50.057Z,13.50
2023-05-20T22:24:18.320Z,13.50
2023-05-20T22:26:45.480Z,13.50
2023-05-20T22:29:12.487Z,13.50
2023-05-20T22:31:39.711Z,13.50
2023-05-20T22:34:06.794Z,13.40
2023-05-20T22:36:34.246Z,13.40
2023-05-20T22:39:02.415Z,13.40
2023-05-20T22:41:29.426Z,13.30
2023-05-20T22:43:56.979Z,13.30
2023-05-20T22:46:24.776Z,13.30
2023-05-20T22:48:55.586Z,13.30
2023-05-20T22:51:22.859Z,13.20
2023-05-20T22:53:50.271Z,13.20
2023-05-20T22:56:18.108Z,13.20
2023-05-20T22:58:45.967Z,13.20
2023-05-20T23:01:13.367Z,13.30
2023-05-20T23:03:40.422Z,13.20
2023-05-20T23:06:07.426Z,13.20
2023-05-20T23:08:34.383Z,13.20
2023-05-20T23:11:01.448Z,13.20
2023-05-20T23:13:28.357Z,13.20
2023-05-20T23:15:55.320Z,13.20
2023-05-20T23:18:22.338Z,13.20
2023-05-20T23:20:49.364Z,13.20
2023-05-20T23:23:17.163Z,13.20
2023-05-20T23:25:45.874Z,13.20
2023-05-20T23:28:12.972Z,13.20
2023-05-20T23:30:39.967Z,13.20
2023-05-20T23:33:07.298Z,13.20
2023-05-20T23:35:34.566Z,13.30
2023-05-20T23:38:01.752Z,13.30
2023-05-20T23:40:28.646Z,13.20
2023-05-20T23:42:55.564Z,13.20
2023-05-20T23:45:22.614Z,13.10
2023-05-20T23:47:49.911Z,13.10
2023-05-20T23:50:16.938Z,13.10
2023-05-20T23:52:43.860Z,13.00
2023-05-20T23:55:13.192Z,13.00
2023-05-20T23:57:41.187Z,13.00
